Time;durP1;ratioP1;P1;durP2;ratioP2;P2;SDS_P1;SDS_P2;PMS_P1;PMS_P2;Temp;Humidity;BMP_temperature;BMP_pressure;BME280_temperature;BME280_humidity;BME280_pressure;Samples;Min_cycle;Max_cycle;Signal;HPM_P1;HPM_P2
2023/08/13 00:02:00;;;;;;;2.65;1.63;;;18.80;99.90;;;19.20;100.00;101154.16;5183840;28;20044;-72
2023/08/13 00:04:33;;;;;;;2.65;1.63;;;18.80;99.90;;;19.22;100.00;101159.44;5185666;28;20050;-73
2023/08/13 00:07:07;;;;;;;3.45;1.58;;;18.80;99.90;;;19.20;100.00;101154.16;5184059;28;20038;-73
2023/08/13 00:09:42;;;;;;;2.30;1.48;;;18.80;99.90;;;19.17;100.00;101159.44;5185367;28;20053;-73
2023/08/13 00:12:14;;;;;;;3.08;1.48;;;18.80;99.90;;;19.18;100.00;101152.38;5185162;28;20049;-73
2023/08/13 00:14:47;;;;;;;2.42;1.20;;;18.80;99.90;;;19.19;100.00;101144.44;5183942;28;20108;-71
2023/08/13 00:17:19;;;;;;;3.17;1.52;;;18.80;99.90;;;19.20;100.00;101150.63;5185460;28;20049;-72
2023/08/13 00:19:51;;;;;;;1.58;1.25;;;18.80;99.90;;;19.23;100.00;101146.25;5183463;28;20049;-72
2023/08/13 00:22:25;;;;;;;1.88;1.33;;;18.80;99.90;;;19.20;100.00;101148.84;5185280;28;20049;-71
2023/08/13 00:24:57;;;;;;;2.72;1.40;;;18.80;99.90;;;19.15;100.00;101134.72;5183622;28;20906;-71
2023/08/13 00:27:29;;;;;;;1.92;1.50;;;18.80;99.90;;;19.13;100.00;101133.84;5184938;28;20030;-73
2023/08/13 00:30:01;;;;;;;1.98;1.30;;;18.80;99.90;;;19.12;100.00;101137.38;5167018;28;20499;-73
2023/08/13 00:32:33;;;;;;;4.28;1.98;;;18.70;99.90;;;19.12;100.00;101145.31;5183355;28;20144;-72
2023/08/13 00:35:08;;;;;;;4.15;1.85;;;18.80;99.90;;;19.13;100.00;101157.63;5185106;28;20030;-71
2023/08/13 00:37:41;;;;;;;3.00;1.60;;;18.70;99.90;;;19.17;100.00;101154.16;5183687;28;20064;-71
2023/08/13 00:40:16;;;;;;;2.33;1.50;;;18.70;99.90;;;19.20;100.00;101159.44;5183573;28;20054;-72
2023/08/13 00:42:49;;;;;;;2.17;1.65;;;18.80;99.90;;;19.22;100.00;101168.25;5199620;28;20046;-71
2023/08/13 00:45:21;;;;;;;2.90;1.88;;;18.80;99.90;;;19.24;100.00;101174.44;5167036;28;20049;-71
2023/08/13 00:47:56;;;;;;;3.55;1.63;;;18.80;99.90;;;19.24;100.00;101171.78;5166823;28;20074;-71
2023/08/13 00:50:29;;;;;;;1.88;1.45;;;18.90;99.90;;;19.23;100.00;101175.31;5183063;28;20391;-73
2023/08/13 00:53:04;;;;;;;1.90;1.33;;;18.90;99.90;;;19.23;100.00;101180.59;5182921;28;20050;-72
2023/08/13 00:55:36;;;;;;;2.80;1.63;;;18.80;99.90;;;19.22;100.00;101172.63;5182871;28;20042;-71
2023/08/13 00:58:09;;;;;;;2.60;1.65;;;18.80;99.90;;;19.23;100.00;101174.41;5182780;28;20452;-72
2023/08/13 01:00:42;;;;;;;2.60;1.33;;;18.80;99.90;;;19.25;100.00;101184.13;5182408;28;20057;-71
2023/08/13 01:03:16;;;;;;;2.05;1.50;;;18.80;99.90;;;19.28;100.00;101185.00;5182382;28;20042;-73
2023/08/13 01:05:56;;;;;;;2.60;1.50;;;18.90;99.90;;;19.30;100.00;101185.88;5182147;28;20053;-72
2023/08/13 01:08:44;;;;;;;3.05;1.83;;;18.90;99.90;;;19.31;100.00;101188.56;5183259;28;20042;-72
2023/08/13 01:11:28;;;;;;;2.75;1.73;;;18.90;99.90;;;19.35;100.00;101186.81;5178503;28;20088;-71
2023/08/13 01:14:11;;;;;;;2.53;1.50;;;18.90;99.90;;;19.37;100.00;101188.59;5174975;28;20512;-71
2023/08/13 01:16:47;;;;;;;2.47;1.75;;;19.00;99.90;;;19.42;100.00;101191.25;5182540;28;20128;-72
2023/08/13 01:19:19;;;;;;;2.78;1.73;;;19.00;99.90;;;19.45;100.00;101186.00;5166163;28;20061;-72
2023/08/13 01:21:51;;;;;;;2.67;1.73;;;19.10;99.90;;;19.46;100.00;101188.63;5182725;28;20034;-71
2023/08/13 01:24:25;;;;;;;3.60;2.05;;;19.10;99.90;;;19.49;100.00;101185.09;5182194;28;20045;-72
2023/08/13 01:27:08;;;;;;;;;;;19.10;99.90;;;19.51;100.00;101170.16;5182462;28;20042;-71
2023/08/13 01:29:48;;;;;;;3.25;1.77;;;19.10;99.90;;;19.52;100.00;101171.91;5182269;28;19944;-72
2023/08/13 01:32:29;;;;;;;3.70;2.00;;;19.20;99.90;;;19.52;100.00;101185.13;5182395;28;20416;-72
2023/08/13 01:35:06;;;;;;;4.03;2.13;;;19.10;99.90;;;19.51;100.00;101181.59;5182579;28;20046;-72
2023/08/13 01:37:40;;;;;;;5.30;2.17;;;19.10;99.90;;;19.51;100.00;101173.69;5182297;28;20057;-72
2023/08/13 01:40:14;;;;;;;3.33;1.77;;;19.20;99.90;;;19.50;100.00;101181.63;5166120;28;20055;-70
2023/08/13 01:42:47;;;;;;;2.50;1.58;;;19.20;99.90;;;19.48;100.00;101180.69;5182065;28;20520;-71
2023/08/13 01:45:19;;;;;;;2.88;1.80;;;19.10;99.90;;;19.48;100.00;101180.69;5183825;28;20466;-71
2023/08/13 01:47:51;;;;;;;3.30;1.95;;;19.10;99.90;;;19.47;100.00;101179.81;5183701;28;20049;-71
2023/08/13 01:50:24;;;;;;;3.50;1.67;;;19.10;99.90;;;19.45;100.00;101186.00;5182258;28;20084;-72
2023/08/13 01:52:56;;;;;;;2.60;1.45;;;19.10;99.90;;;19.44;100.00;101189.50;5181504;28;20045;-73
2023/08/13 01:55:33;;;;;;;2.53;1.42;;;19.10;99.90;;;19.43;100.00;101179.78;5183517;28;20037;-71
2023/08/13 01:58:05;;;;;;;3.33;1.80;;;19.10;99.90;;;19.40;100.00;101178.03;5174844;28;20065;-73
2023/08/13 02:00:37;;;;;;;3.22;1.50;;;19.00;99.90;;;19.39;100.00;101185.97;5181539;28;20053;-71
2023/08/13 02:03:10;;;;;;;3.13;1.75;;;19.00;99.90;;;19.37;100.00;101179.78;5165861;28;20054;-72
2023/08/13 02:05:43;;;;;;;3.80;1.90;;;19.00;99.90;;;19.36;100.00;101175.34;5183187;28;20049;-71
2023/08/13 02:08:16;;;;;;;2.03;1.50;;;19.00;99.90;;;19.35;100.00;101173.59;5165706;28;20057;-72
2023/08/13 02:10:50;;;;;;;2.65;1.65;;;18.90;99.90;;;19.32;100.00;101166.53;5181717;28;20049;-72
2023/08/13 02:13:22;;;;;;;2.20;1.58;;;18.90;99.90;;;19.31;100.00;101164.78;5165563;28;20052;-71
2023/08/13 02:15:55;;;;;;;2.30;1.42;;;18.90;99.90;;;19.30;100.00;101173.59;5181853;28;20042;-71
2023/08/13 02:18:27;;;;;;;3.20;1.65;;;18.90;99.90;;;19.27;100.00;101170.03;5181917;28;20052;-71
2023/08/13 02:20:59;;;;;;;2.65;1.35;;;18.90;99.90;;;19.23;100.00;101170.03;5173701;28;20045;-72
2023/08/13 02:23:32;;;;;;;2.22;1.50;;;18.90;99.90;;;19.18;100.00;101171.75;5181853;28;20140;-71
2023/08/13 02:26:05;;;;;;;1.90;1.45;;;18.80;99.90;;;19.16;100.00;101177.88;5157877;28;20053;-71
2023/08/13 02:28:38;;;;;;;3.17;1.80;;;18.80;99.90;;;19.11;100.00;101175.25;5183297;28;20042;-72
2023/08/13 02:31:11;;;;;;;3.53;1.83;;;18.70;99.90;;;19.08;100.00;101175.22;5181770;28;20046;-72
2023/08/13 02:33:44;;;;;;;2.30;1.60;;;18.70;99.90;;;19.07;100.00;101183.13;5183298;28;20416;-72
2023/08/13 02:36:16;;;;;;;2.05;1.73;;;18.70;99.90;;;19.04;100.00;101173.44;5181626;28;20050;-71
2023/08/13 02:38:48;;;;;;;3.65;1.88;;;18.70;99.90;;;19.02;100.00;101171.66;5181473;28;20363;-73
2023/08/13 02:41:22;;;;;;;2.92;2.05;;;18.60;99.90;;;18.98;100.00;101173.41;5183454;28;20045;-71
2023/08/13 02:43:56;;;;;;;2.25;1.73;;;18.60;99.90;;;18.95;100.00;101173.38;5181645;28;20069;-72
2023/08/13 02:46:29;;;;;;;2.35;1.73;;;18.60;99.90;;;18.92;100.00;101168.09;5181575;28;20053;-72
2023/08/13 02:49:01;;;;;;;2.80;1.45;;;18.50;99.90;;;18.87;100.00;101164.50;5181601;28;20038;-72
2023/08/13 02:51:34;;;;;;;2.55;1.52;;;18.50;99.90;;;18.84;100.00;101167.13;5181531;28;20065;-72
2023/08/13 02:54:07;;;;;;;1.50;1.15;;;18.50;99.90;;;18.81;100.00;101159.19;5165698;28;20057;-71
2023/08/13 02:56:43;;;;;;;2.70;1.48;;;18.50;99.90;;;18.77;100.00;101162.66;5165593;28;20401;-71
2023/08/13 02:59:15;;;;;;;1.67;1.27;;;18.40;99.90;;;18.72;100.00;101174.97;5145288;28;20046;-72
2023/08/13 03:01:47;;;;;;;1.73;1.30;;;18.40;99.90;;;18.68;100.00;101172.31;5178242;28;20049;-71
2023/08/13 03:04:19;;;;;;;1.35;1.08;;;18.30;99.90;;;18.66;100.00;101166.13;5184074;28;20467;-70
2023/08/13 03:06:52;;;;;;;1.70;1.42;;;18.30;99.90;;;18.64;100.00;101165.19;5186261;28;20046;-71
2023/08/13 03:09:24;;;;;;;1.90;1.30;;;18.30;99.90;;;18.60;100.00;101171.34;5169229;28;20069;-70
2023/08/13 03:11:57;;;;;;;2.17;1.60;;;18.30;99.90;;;18.54;100.00;101163.34;5184975;28;20050;-71
2023/08/13 03:14:30;;;;;;;2.97;1.58;;;18.20;99.90;;;18.51;100.00;101171.25;5168735;28;20145;-71
2023/08/13 03:17:03;;;;;;;2.47;1.52;;;18.20;99.90;;;18.47;100.00;101164.19;5184968;28;20050;-71
2023/08/13 03:19:35;;;;;;;1.42;1.27;;;18.10;99.90;;;18.43;100.00;101167.66;5164585;28;20054;-72
2023/08/13 03:22:09;;;;;;;2.65;1.55;;;18.10;99.90;;;18.40;100.00;101162.38;5184875;28;20042;-71
2023/08/13 03:24:42;;;;;;;1.58;1.20;;;18.10;99.90;;;18.36;100.00;101168.47;5184670;28;20052;-73
2023/08/13 03:27:16;;;;;;;2.67;1.15;;;18.10;99.90;;;18.33;100.00;101171.09;5184839;28;20085;-71
2023/08/13 03:29:49;;;;;;;1.38;1.15;;;18.00;99.90;;;18.30;100.00;101173.69;5184245;28;20045;-71
2023/08/13 03:32:21;;;;;;;4.53;1.63;;;17.90;99.90;;;18.25;100.00;101164.84;5184665;28;20042;-73
2023/08/13 03:34:54;;;;;;;1.75;1.17;;;17.90;99.90;;;18.24;100.00;101163.97;5184477;28;20045;-73
2023/08/13 03:37:26;;;;;;;1.77;1.23;;;17.90;99.90;;;18.22;100.00;101159.56;5184716;28;20482;-71
2023/08/13 03:40:01;;;;;;;2.47;1.70;;;17.90;99.90;;;18.21;100.00;101161.31;5185910;28;20153;-73
2023/08/13 03:42:35;;;;;;;3.30;1.55;;;17.90;99.90;;;18.18;100.00;101162.16;5186016;28;20070;-71
2023/08/13 03:45:09;;;;;;;2.70;1.40;;;17.90;99.90;;;18.17;100.00;101165.66;5184489;28;20053;-71
2023/08/13 03:47:42;;;;;;;1.67;1.35;;;17.80;99.90;;;18.13;100.00;101163.88;5184517;28;20046;-72
2023/08/13 03:50:14;;;;;;;1.58;1.30;;;17.80;99.90;;;18.10;100.00;101168.22;5167955;28;20034;-73
2023/08/13 03:52:48;;;;;;;2.80;1.45;;;17.80;99.90;;;18.09;100.00;101180.53;5184198;28;20421;-72
2023/08/13 03:55:22;;;;;;;3.30;1.60;;;17.80;99.90;;;18.06;100.00;101177.88;5184376;28;20057;-72
2023/08/13 03:57:56;;;;;;;2.00;1.40;;;17.80;99.90;;;18.05;100.00;101181.38;5168047;28;20045;-71
2023/08/13 04:00:28;;;;;;;3.50;1.48;;;17.70;99.90;;;18.05;100.00;101185.75;5167447;28;20041;-71
2023/08/13 04:03:03;;;;;;;2.17;1.40;;;17.70;99.90;;;18.05;100.00;101186.63;5183711;28;20058;-73
2023/08/13 04:05:35;;;;;;;2.20;1.40;;;17.70;99.90;;;18.04;100.00;101195.44;5168241;28;20057;-71
2023/08/13 04:08:08;;;;;;;2.33;1.30;;;17.70;99.90;;;18.04;100.00;101190.16;5183525;28;20054;-72
2023/08/13 04:10:40;;;;;;;2.50;1.40;;;17.70;99.90;;;18.05;100.00;101191.91;5168470;28;20326;-72
2023/08/13 04:13:14;;;;;;;2.47;1.42;;;17.70;99.90;;;18.06;100.00;101188.44;5176502;28;20050;-72
2023/08/13 04:15:48;;;;;;;1.98;1.30;;;17.70;99.90;;;18.06;100.00;101193.72;5184989;28;20050;-72
2023/08/13 04:18:21;;;;;;;2.80;1.50;;;17.70;99.90;;;18.08;100.00;101196.34;5157337;28;20058;-72
2023/08/13 04:20:55;;;;;;;1.98;1.27;;;17.70;99.90;;;18.08;100.00;101186.69;5181630;28;20052;-71
2023/08/13 04:23:27;;;;;;;2.45;1.33;;;17.70;99.90;;;18.09;100.00;101199.00;5183201;28;20085;-72
2023/08/13 04:26:00;;;;;;;1.55;1.38;;;17.80;99.90;;;18.09;100.00;101193.72;5183585;28;20132;-71
2023/08/13 04:28:34;;;;;;;1.73;1.35;;;17.70;99.90;;;18.08;100.00;101191.97;5183803;28;20230;-73
2023/08/13 04:31:09;;;;;;;2.70;1.40;;;17.70;99.90;;;18.06;100.00;101192.81;5183165;28;20053;-72
2023/08/13 04:33:44;;;;;;;3.10;1.60;;;17.70;99.90;;;18.03;100.00;101192.78;5183739;28;20046;-71
2023/08/13 04:36:18;;;;;;;2.15;1.40;;;17.70;99.90;;;18.01;100.00;101189.25;5176552;28;20140;-71
2023/08/13 04:38:52;;;;;;;1.85;1.20;;;17.70;99.90;;;17.99;100.00;101188.34;5167086;28;20424;-71
2023/08/13 04:41:24;;;;;;;1.55;1.30;;;17.70;99.90;;;17.97;100.00;101193.59;5183169;28;20053;-71
2023/08/13 04:43:58;;;;;;;1.95;1.40;;;17.60;99.90;;;17.94;100.00;101183.03;5183402;28;20103;-72
2023/08/13 04:46:30;;;;;;;2.10;1.60;;;17.60;99.90;;;17.92;100.00;101195.28;5183086;28;20137;-72
2023/08/13 04:49:07;;;;;;;1.90;1.48;;;17.60;99.90;;;17.93;100.00;101197.09;5183028;28;20140;-72
2023/08/13 04:51:39;;;;;;;1.75;1.35;;;17.60;99.90;;;17.93;100.00;101191.81;5184438;28;20046;-71
2023/08/13 04:54:11;;;;;;;3.40;1.60;;;17.60;99.90;;;17.95;100.00;101195.34;5182976;28;20046;-72
2023/08/13 04:56:45;;;;;;;2.55;1.50;;;17.60;99.90;;;17.95;100.00;101190.06;5183147;28;20068;-72
2023/08/13 04:59:20;;;;;;;2.58;1.55;;;17.60;99.90;;;17.98;100.00;101200.63;5184533;28;20048;-71
2023/08/13 05:01:54;;;;;;;2.55;1.42;;;17.60;99.90;;;18.00;100.00;101191.00;5182782;28;20595;-72
2023/08/13 05:04:27;;;;;;;3.25;1.67;;;17.60;99.90;;;18.02;100.00;101202.44;5156978;28;20451;-71
2023/08/13 05:07:00;;;;;;;2.13;1.50;;;17.70;99.90;;;18.02;100.00;101197.19;5180728;28;20575;-72
2023/08/13 05:09:34;;;;;;;3.17;1.60;;;17.70;99.90;;;18.04;100.00;101190.16;5166682;28;20056;-72
2023/08/13 05:12:09;;;;;;;3.03;1.90;;;17.70;99.90;;;18.07;100.00;101195.47;5166962;28;20084;-71
2023/08/13 05:14:43;;;;;;;2.15;1.50;;;17.80;99.90;;;18.10;100.00;101186.69;5166810;28;20123;-71
2023/08/13 05:17:20;;;;;;;2.85;1.67;;;17.80;99.90;;;18.12;100.00;101193.75;5166894;28;20046;-72
2023/08/13 05:19:52;;;;;;;2.13;1.42;;;17.80;99.90;;;18.15;100.00;101195.56;5165824;28;20045;-72
2023/08/13 05:22:25;;;;;;;2.05;1.30;;;17.80;99.90;;;18.19;100.00;101194.69;5182927;28;20038;-71
2023/08/13 05:24:58;;;;;;;3.55;1.73;;;17.80;99.90;;;18.21;100.00;101181.53;5166686;28;20050;-72
2023/08/13 05:27:30;;;;;;;3.08;1.33;;;17.90;99.90;;;18.24;100.00;101187.72;5181495;28;20540;-71
2023/08/13 05:30:09;;;;;;;1.98;1.42;;;17.90;99.90;;;18.29;100.00;101190.41;5181785;28;20034;-71
2023/08/13 05:32:41;;;;;;;2.72;1.70;;;17.90;99.90;;;18.33;100.00;101198.38;5181144;28;20041;-72
2023/08/13 05:35:13;;;;;;;2.45;1.50;;;18.00;99.90;;;18.37;100.00;101194.00;5181265;28;20132;-72
2023/08/13 05:37:46;;;;;;;2.08;1.50;;;18.00;99.90;;;18.42;100.00;101194.94;5164827;28;20121;-72
2023/08/13 05:40:19;;;;;;;2.83;1.50;;;18.10;99.90;;;18.48;100.00;101189.69;5196871;28;20404;-71
2023/08/13 05:42:51;;;;;;;3.08;1.60;;;18.10;99.90;;;18.55;100.00;101194.16;5163557;28;20046;-72
2023/08/13 05:45:25;;;;;;;3.60;1.45;;;18.20;99.90;;;18.62;100.00;101190.69;5181711;28;20333;-72
2023/08/13 05:47:59;;;;;;;3.55;1.70;;;18.30;99.90;;;18.69;100.00;101186.38;5181245;28;20048;-74
2023/08/13 05:50:31;;;;;;;3.88;1.52;;;18.40;99.90;;;18.75;100.00;101185.56;5182794;28;20092;-71
2023/08/13 05:53:05;;;;;;;3.33;1.75;;;18.40;99.90;;;18.87;100.00;101188.28;5162443;28;20165;-71
2023/08/13 05:55:37;;;;;;;4.13;2.00;;;18.50;99.90;;;19.08;100.00;101184.91;5198242;28;20149;-71
2023/08/13 05:58:09;;;;;;;3.35;1.70;;;18.70;99.90;;;19.27;100.00;101185.88;5180761;28;20057;-71
2023/08/13 06:00:43;;;;;;;4.13;2.00;;;18.80;99.90;;;19.44;100.00;101189.50;5182762;28;20061;-70
2023/08/13 06:03:15;;;;;;;2.33;1.83;;;19.00;99.90;;;19.71;100.00;101199.34;5180859;28;20034;-72
2023/08/13 06:05:49;;;;;;;5.68;2.30;;;19.20;99.90;;;19.93;100.00;101205.59;5176598;28;20054;-71
2023/08/13 06:08:21;;;;;;;3.30;1.77;;;19.40;99.90;;;20.04;100.00;101198.56;5179020;28;20582;-73
2023/08/13 06:10:53;;;;;;;4.03;1.90;;;19.50;99.90;;;20.12;100.00;101202.09;5181102;28;20393;-72
2023/08/13 06:13:27;;;;;;;3.63;2.53;;;19.60;99.90;;;20.24;100.00;101210.06;5179891;28;20502;-74
2023/08/13 06:16:01;;;;;;;4.40;2.30;;;19.70;99.90;;;20.31;100.00;101201.25;5178490;28;20041;-72
2023/08/13 06:18:33;;;;;;;4.35;2.03;;;19.90;99.90;;;20.36;100.00;101197.75;5176303;28;20053;-73
2023/08/13 06:21:05;;;;;;;3.08;1.75;;;19.90;99.90;;;20.44;100.00;101193.34;5180264;28;20037;-73
2023/08/13 06:23:38;;;;;;;3.95;2.10;;;20.00;99.90;;;20.78;100.00;101192.47;5182544;28;20057;-72
2023/08/13 06:26:10;;;;;;;2.92;1.85;;;20.20;99.90;;;21.18;100.00;101200.34;5180140;28;20058;-73
2023/08/13 06:28:42;;;;;;;2.85;1.80;;;20.60;99.90;;;21.44;100.00;101199.44;5181759;28;20415;-73
2023/08/13 06:31:16;;;;;;;3.55;1.85;;;20.80;99.90;;;21.59;100.00;101199.41;5180178;28;20408;-73
2023/08/13 06:33:48;;;;;;;4.13;2.05;;;21.00;99.90;;;21.69;100.00;101198.47;5180429;28;20068;-73
2023/08/13 06:36:20;;;;;;;4.60;1.95;;;21.10;99.90;;;21.78;100.00;101198.44;5182089;28;20046;-72
2023/08/13 06:38:52;;;;;;;4.82;2.25;;;21.20;99.90;;;21.89;100.00;101201.00;5182047;28;20073;-73
2023/08/13 06:41:26;;;;;;;3.42;2.10;;;21.30;99.90;;;22.01;100.00;101197.41;5176628;28;20140;-72
2023/08/13 06:43:59;;;;;;;4.20;1.92;;;21.40;99.90;;;22.12;100.00;101203.59;5155227;28;20065;-73
2023/08/13 06:46:34;;;;;;;4.78;2.05;;;21.50;99.90;;;22.29;100.00;101201.69;5184742;28;20061;-72
2023/08/13 06:49:06;;;;;;;4.72;2.20;;;21.70;99.90;;;22.38;100.00;101206.06;5186171;28;20502;-73
2023/08/13 06:51:39;;;;;;;3.05;1.75;;;21.80;99.90;;;22.44;100.00;101206.91;5185525;28;20057;-73
2023/08/13 06:54:11;;;;;;;2.75;1.70;;;21.80;99.90;;;22.39;100.00;101208.69;5185060;28;20042;-63
2023/08/13 06:56:43;;;;;;;4.20;1.90;;;21.80;99.90;;;22.38;100.00;101211.38;5187270;28;20052;-62
2023/08/13 06:59:15;;;;;;;3.08;1.80;;;21.80;99.90;;;22.41;100.00;101206.91;5187719;28;20500;-62
2023/08/13 07:01:49;;;;;;;2.97;1.60;;;21.80;99.90;;;22.46;100.00;101202.44;5186546;28;20088;-63
2023/08/13 07:04:21;;;;;;;2.67;1.48;;;21.90;99.90;;;22.54;100.00;101201.50;5186442;28;20050;-62
2023/08/13 07:06:53;;;;;;;2.95;1.70;;;21.90;99.90;;;22.74;100.00;101194.25;5186567;28;20061;-63
2023/08/13 07:09:27;;;;;;;4.78;1.52;;;22.10;99.90;;;23.00;100.00;101200.22;5178406;28;20034;-62
2023/08/13 07:11:59;;;;;;;2.75;1.67;;;22.30;99.90;;;23.13;100.00;101197.44;5184413;28;20056;-62
2023/08/13 07:14:33;;;;;;;3.92;1.70;;;22.40;99.90;;;23.21;100.00;101211.53;5186863;28;20491;-63
2023/08/13 07:17:06;;;;;;;2.72;1.30;;;22.60;99.90;;;23.19;100.00;101198.25;5186086;28;20042;-63
2023/08/13 07:19:38;;;;;;;3.45;1.73;;;22.60;99.90;;;23.21;100.00;101191.16;5186143;28;20049;-62
2023/08/13 07:22:10;;;;;;;2.30;1.42;;;22.60;99.90;;;23.35;100.00;101204.31;5185991;28;20049;-63
2023/08/13 07:24:42;;;;;;;5.57;1.55;;;22.70;99.90;;;23.45;100.00;101197.97;5185850;28;20042;-63
2023/08/13 07:27:15;;;;;;;3.25;1.60;;;22.80;99.90;;;23.60;100.00;101204.00;5186009;28;20041;-63
2023/08/13 07:29:47;;;;;;;2.90;1.50;;;22.90;99.90;;;23.74;100.00;101197.66;5185681;28;20034;-63
2023/08/13 07:32:20;;;;;;;3.35;1.23;;;23.00;99.90;;;23.87;100.00;101198.38;5185790;28;20046;-61
2023/08/13 07:34:52;;;;;;;3.35;1.63;;;23.10;99.90;;;23.96;100.00;101198.22;5185804;28;20054;-62
2023/08/13 07:37:25;;;;;;;4.07;1.73;;;23.20;99.90;;;24.05;100.00;101206.06;5185863;28;20495;-63
2023/08/13 07:39:58;;;;;;;1.98;1.30;;;23.30;99.90;;;24.09;100.00;101207.81;5185539;28;20121;-64
2023/08/13 07:42:30;;;;;;;4.32;1.58;;;23.30;99.90;;;24.16;100.00;101215.69;5185755;28;20048;-65
2023/08/13 07:45:02;;;;;;;1.92;1.33;;;23.40;99.90;;;24.24;100.00;101203.16;5184075;28;20519;-66
2023/08/13 07:47:37;;;;;;;4.38;1.55;;;23.40;99.90;;;24.25;100.00;101207.56;5184005;28;20103;-70
2023/08/13 07:50:10;;;;;;;2.85;1.35;;;23.50;99.90;;;24.13;100.00;101207.78;5183212;28;20443;-73
2023/08/13 07:52:42;;;;;;;6.63;1.90;;;23.40;99.90;;;24.02;100.00;101219.44;5179630;28;20119;-74
2023/08/13 07:55:15;;;;;;;2.35;1.40;;;23.30;99.90;;;23.82;100.00;101216.19;5182712;28;20081;-74
2023/08/13 07:57:48;;;;;;;6.07;1.52;;;23.20;99.90;;;23.65;100.00;101208.41;5181628;28;20049;-64
2023/08/13 08:00:20;;;;;;;4.65;1.60;;;23.10;99.90;;;23.59;100.00;101213.75;5183619;28;20046;-66
2023/08/13 08:02:54;;;;;;;2.60;1.50;;;23.00;99.90;;;23.70;100.00;101213.66;5181079;28;20101;-65
2023/08/13 08:05:27;;;;;;;2.97;1.45;;;23.00;99.90;;;23.81;100.00;101215.31;5183362;28;20041;-64
2023/08/13 08:08:00;;;;;;;5.05;1.50;;;23.10;99.90;;;23.85;100.00;101208.13;5183342;28;20411;-65
2023/08/13 08:10:32;;;;;;;3.47;1.40;;;23.10;99.90;;;23.92;100.00;101204.47;5175336;28;20049;-64
2023/08/13 08:13:05;;;;;;;2.72;1.33;;;23.20;99.90;;;24.00;100.00;101207.94;5179325;28;20045;-63
2023/08/13 08:15:37;;;;;;;5.20;1.52;;;23.20;99.90;;;23.99;98.83;101208.81;5184191;28;20042;-64
2023/08/13 08:18:10;;;;;;;6.43;1.90;;;23.20;99.90;;;24.06;97.52;101205.19;5182586;28;20053;-72
2023/08/13 08:20:42;;;;;;;2.97;1.25;;;23.30;99.90;;;24.21;96.98;101208.53;5179214;28;20042;-73
2023/08/13 08:23:15;;;;;;;4.40;1.42;;;23.40;99.90;;;24.21;94.72;101208.53;5182712;28;20050;-72
2023/08/13 08:25:47;;;;;;;3.72;1.23;;;23.30;99.90;;;24.18;94.76;101211.22;5184751;28;20562;-72
2023/08/13 08:28:19;;;;;;;2.90;1.30;;;23.30;99.90;;;24.25;94.15;101202.25;5183606;28;20046;-71
2023/08/13 08:30:52;;;;;;;2.97;1.40;;;23.40;99.90;;;24.36;93.72;101208.31;5151118;28;20042;-74
2023/08/13 08:33:26;;;;;;;3.22;1.10;;;23.40;99.90;;;24.53;92.32;101200.94;5184682;28;20034;-72
2023/08/13 08:35:58;;;;;;;3.20;1.23;;;23.50;99.90;;;24.81;91.64;101201.34;5184970;28;20049;-72
2023/08/13 08:38:30;;;;;;;3.78;1.23;;;23.70;99.90;;;25.11;90.37;101191.97;5183023;28;20052;-71
2023/08/13 08:41:02;;;;;;;3.72;1.35;;;23.80;99.90;;;25.30;88.85;101197.81;5182681;28;20038;-73
2023/08/13 08:43:38;;;;;;;5.50;1.50;;;24.00;99.90;;;25.55;87.92;101191.97;5184450;28;20042;-71
2023/08/13 08:46:12;;;;;;;2.42;1.23;;;24.20;99.90;;;25.78;86.32;101195.06;5184203;28;20512;-72
2023/08/13 08:48:46;;;;;;;2.83;1.20;;;24.40;99.40;;;26.35;85.19;101188.44;5184622;28;20548;-72
2023/08/13 08:51:19;;;;;;;4.22;1.10;;;24.70;99.10;;;27.30;82.40;101201.13;5184165;28;20045;-73
2023/08/13 08:53:51;;;;;;;3.13;1.20;;;25.40;98.40;;;28.14;78.17;101192.41;5184296;28;20042;-72
2023/08/13 08:56:25;;;;;;;3.22;1.10;;;26.00;96.90;;;28.32;76.52;101197.22;5182655;28;20050;-72
2023/08/13 08:58:58;;;;;;;;;;;26.40;95.60;;;28.52;75.32;101198.38;5183478;28;20499;-71
2023/08/13 09:01:30;;;;;;;1.30;1.00;;;26.60;94.60;;;28.83;76.01;101196.41;5182947;28;19926;-72
2023/08/13 09:04:04;;;;;;;4.18;1.08;;;26.90;94.50;;;29.37;74.59;101192.69;5184227;28;20042;-73
2023/08/13 09:06:59;;;;;;;3.05;1.05;;;27.30;93.80;;;30.02;73.07;101193.81;5177008;28;20046;-72
2023/08/13 09:09:32;;;;;;;2.35;0.90;;;27.80;92.90;;;29.83;72.12;101188.28;5183972;28;20134;-73
2023/08/13 09:12:05;;;;;;;7.13;1.35;;;27.80;91.70;;;29.00;72.49;101178.84;5183865;28;20042;-72
2023/08/13 09:14:37;;;;;;;2.72;1.08;;;27.40;90.70;;;28.38;75.26;101183.63;5176557;28;20038;-72
2023/08/13 09:17:12;;;;;;;3.95;1.20;;;27.10;91.70;;;28.28;75.90;101179.44;5166069;28;20077;-72
2023/08/13 09:19:46;;;;;;;4.65;1.10;;;26.90;91.70;;;28.16;74.48;101177.16;5182459;28;20205;-72
2023/08/13 09:22:18;;;;;;;3.53;1.05;;;26.80;90.80;;;27.89;75.80;101178.03;5182523;28;20045;-72
2023/08/13 09:24:51;;;;;;;2.78;1.00;;;26.70;91.10;;;27.60;77.34;101174.41;5183807;28;20044;-72
2023/08/13 09:27:24;;;;;;;2.28;1.00;;;26.50;91.60;;;27.42;78.75;101174.94;5182352;28;20052;-72
2023/08/13 09:29:57;;;;;;;2.08;0.93;;;26.30;92.00;;;27.35;78.90;101173.38;5182128;28;20052;-73
2023/08/13 09:32:29;;;;;;;3.65;1.13;;;26.30;92.10;;;27.28;80.01;101167.31;5165458;28;20073;-73
2023/08/13 09:35:06;;;;;;;1.83;0.93;;;26.30;92.30;;;27.08;81.30;101159.84;5161737;28;20046;-72
2023/08/13 09:37:39;;;;;;;3.53;1.17;;;26.20;93.20;;;26.80;81.47;101159.69;5183680;28;20073;-72
2023/08/13 09:40:12;;;;;;;3.70;1.10;;;25.90;92.80;;;26.50;81.80;101151.53;5165622;28;20092;-72
2023/08/13 09:42:45;;;;;;;1.50;1.10;;;25.80;92.80;;;26.37;83.09;101152.72;5183512;28;20502;-71
2023/08/13 09:45:19;;;;;;;2.80;1.13;;;25.60;93.20;;;26.35;83.69;101135.88;5180695;28;20083;-62
2023/08/13 09:47:52;;;;;;;2.15;0.95;;;25.50;93.50;;;26.29;84.67;101125.31;5182656;28;20050;-64
2023/08/13 09:50:29;;;;;;;4.63;1.17;;;25.50;94.00;;;26.08;85.42;101134.75;5182076;28;20481;-62
2023/08/13 09:53:04;;;;;;;7.93;1.48;;;25.40;94.10;;;25.68;84.92;101132.06;5182516;28;20124;-62
2023/08/13 09:55:41;;;;;;;5.53;1.60;;;25.10;93.80;;;25.39;86.34;101120.25;5181808;28;20049;-62
2023/08/13 09:58:15;;;;;;;3.47;1.23;;;24.90;94.30;;;25.25;87.18;101122.31;5182913;28;20051;-62
2023/08/13 10:00:48;;;;;;;;;;;24.70;94.60;;;25.10;87.18;101127.94;5178856;28;20554;-62
2023/08/13 10:03:20;;;;;;;3.97;1.58;;;24.60;94.70;;;24.96;86.99;101125.53;5182740;28;19925;-62
2023/08/13 10:05:56;;;;;;;5.00;1.63;;;24.40;94.60;;;24.80;87.83;101132.94;5177744;28;20042;-60
2023/08/13 10:08:31;;;;;;;4.95;1.30;;;24.30;94.90;;;24.72;89.21;101136.69;5183299;28;20492;-81
2023/08/13 10:11:05;;;;;;;;;;;24.20;95.40;;;24.67;89.26;101130.53;5151455;28;20153;-79
2023/08/13 10:13:37;;;;;;;2.72;1.15;;;24.20;95.60;;;24.72;89.50;101129.56;5182890;28;19929;-79
2023/08/13 10:16:10;;;;;;;4.22;1.75;;;24.20;95.90;;;24.74;89.60;101129.53;5182198;28;20058;-82
2023/08/13 10:18:46;;;;;;;3.35;1.45;;;24.20;95.80;;;24.80;89.77;101132.06;5184313;28;20069;-82
2023/08/13 10:21:34;;;;;;;3.10;1.45;;;24.20;96.00;;;24.90;90.47;101136.31;5175374;28;20047;-78
2023/08/13 10:24:12;;;;;;;4.10;1.60;;;24.20;96.30;;;25.03;89.94;101143.16;5177927;28;20045;-77
2023/08/13 10:26:47;;;;;;;2.83;1.42;;;24.30;96.30;;;24.99;89.77;101138.81;5176327;28;20050;-76
2023/08/13 10:29:22;;;;;;;3.97;1.20;;;24.30;96.10;;;25.04;90.20;101128.97;5176518;28;20444;-79
2023/08/13 10:32:01;;;;;;;3.95;1.30;;;24.40;96.30;;;25.14;89.50;101125.19;5165852;28;20050;-80
2023/08/13 10:34:41;;;;;;;4.78;1.60;;;24.40;96.20;;;25.27;89.58;101119.63;5175294;28;20053;-81